createdAt,value
2023-05-18T00:00:14.415Z,2.60
2023-05-18T00:01:14.555Z,2.80
2023-05-18T00:02:14.748Z,2.80
2023-05-18T00:03:15.068Z,2.50
2023-05-18T00:04:15.294Z,2.70
2023-05-18T00:05:15.292Z,2.70
2023-05-18T00:06:15.444Z,2.40
2023-05-18T00:07:15.625Z,2.60
2023-05-18T00:08:15.811Z,3.00
2023-05-18T00:09:15.966Z,2.40
2023-05-18T00:10:16.146Z,2.60
2023-05-18T00:11:16.318Z,2.50
2023-05-18T00:12:16.513Z,2.50
2023-05-18T00:13:16.644Z,2.90
2023-05-18T00:14:16.838Z,2.90
2023-05-18T00:15:17.008Z,2.60
2023-05-18T00:16:17.223Z,2.30
2023-05-18T00:17:17.375Z,2.60
2023-05-18T00:18:17.559Z,2.60
2023-05-18T00:19:17.834Z,2.50
2023-05-18T00:20:17.899Z,2.60
2023-05-18T00:21:18.092Z,2.70
2023-05-18T00:22:18.262Z,2.50
2023-05-18T00:23:18.438Z,2.70
2023-05-18T00:24:18.676Z,2.60
2023-05-18T00:25:18.806Z,2.50
2023-05-18T00:26:18.988Z,2.40
2023-05-18T00:27:19.157Z,2.40
2023-05-18T00:28:19.295Z,2.60
2023-05-18T00:29:19.505Z,2.30
2023-05-18T00:30:19.653Z,2.70
2023-05-18T00:31:19.889Z,2.80
2023-05-18T00:32:20.005Z,2.50
2023-05-18T00:33:20.201Z,2.70
2023-05-18T00:34:20.354Z,2.70
2023-05-18T00:35:20.545Z,2.80
2023-05-18T00:36:20.701Z,2.70
2023-05-18T00:37:20.911Z,2.40
2023-05-18T00:38:21.067Z,2.60
2023-05-18T00:39:21.263Z,2.70
2023-05-18T00:40:21.422Z,2.40
2023-05-18T00:41:21.563Z,2.70
2023-05-18T00:42:21.750Z,2.80
2023-05-18T00:43:21.929Z,2.40
2023-05-18T00:44:22.147Z,2.70
2023-05-18T00:45:22.297Z,2.80
2023-05-18T00:46:22.553Z,3.20
2023-05-18T00:47:22.660Z,2.50
2023-05-18T00:48:22.896Z,2.90
2023-05-18T00:49:23.017Z,2.80
2023-05-18T00:50:23.194Z,2.50
2023-05-18T00:51:23.420Z,2.70
2023-05-18T00:52:23.567Z,2.90
2023-05-18T00:53:23.757Z,2.80
2023-05-18T00:54:23.961Z,2.80
2023-05-18T00:55:24.109Z,3.00
2023-05-18T00:56:24.297Z,2.70
2023-05-18T00:57:24.488Z,2.90
2023-05-18T00:58:24.647Z,2.90
2023-05-18T00:59:24.817Z,2.60
2023-05-18T01:00:24.962Z,2.80
2023-05-18T01:01:25.338Z,2.60
2023-05-18T01:02:25.374Z,2.50
2023-05-18T01:03:25.543Z,3.00
2023-05-18T01:04:25.689Z,2.40
2023-05-18T01:05:25.874Z,3.00
2023-05-18T01:06:26.057Z,2.70
2023-05-18T01:07:26.200Z,2.60
2023-05-18T01:08:26.353Z,2.60
2023-05-18T01:09:26.504Z,2.90
2023-05-18T01:10:26.712Z,2.60
2023-05-18T01:11:26.935Z,2.60
2023-05-18T01:12:27.029Z,2.70
2023-05-18T01:13:27.219Z,2.70
2023-05-18T01:14:29.933Z,2.70
2023-05-18T01:15:27.682Z,2.70
2023-05-18T01:16:27.820Z,2.60
2023-05-18T01:17:27.989Z,2.40
2023-05-18T01:18:28.718Z,2.70
2023-05-18T01:19:28.270Z,2.90
2023-05-18T01:20:28.466Z,2.90
2023-05-18T01:21:28.638Z,2.90
2023-05-18T01:22:28.828Z,2.60
2023-05-18T01:23:29.018Z,2.80
2023-05-18T01:24:29.169Z,2.90
2023-05-18T01:25:29.532Z,2.50
2023-05-18T01:26:29.549Z,2.50
2023-05-18T01:27:29.696Z,2.90
2023-05-18T01:28:29.871Z,2.80
2023-05-18T01:29:30.043Z,2.40
2023-05-18T01:30:30.191Z,2.70
2023-05-18T01:31:30.614Z,2.40
2023-05-18T01:32:30.571Z,3.00
2023-05-18T01:33:30.736Z,2.80
2023-05-18T01:34:30.909Z,2.80
2023-05-18T01:35:31.374Z,2.60
2023-05-18T01:36:31.287Z,2.70
2023-05-18T01:37:31.410Z,3.20
2023-05-18T01:38:31.598Z,2.60
2023-05-18T01:39:31.773Z,2.80
2023-05-18T01:40:31.968Z,2.50
2023-05-18T01:41:32.124Z,2.70
2023-05-18T01:42:32.304Z,2.70
2023-05-18T01:43:32.474Z,2.70
2023-05-18T01:44:32.651Z,2.70
2023-05-18T01:45:32.802Z,2.60
2023-05-18T01:46:33.056Z,2.50
2023-05-18T01:47:33.181Z,2.80
2023-05-18T01:48:33.328Z,2.70
2023-05-18T01:49:33.516Z,2.40
2023-05-18T01:50:33.668Z,2.90
2023-05-18T01:51:33.852Z,2.70
2023-05-18T01:52:34.036Z,2.70
2023-05-18T01:53:34.214Z,2.60
2023-05-18T01:54:34.418Z,2.60
2023-05-18T01:55:34.592Z,2.50
2023-05-18T01:56:34.727Z,2.70
2023-05-18T01:57:34.917Z,2.40
2023-05-18T01:58:35.104Z,2.50
2023-05-18T01:59:35.250Z,2.80
2023-05-18T02:00:35.437Z,2.70
2023-05-18T02:01:35.679Z,2.70
2023-05-18T02:02:35.834Z,2.30
2023-05-18T02:03:36.233Z,2.40
2023-05-18T02:04:36.105Z,2.40
2023-05-18T02:05:36.294Z,2.40
2023-05-18T02:06:36.466Z,2.80
2023-05-18T02:07:36.638Z,2.60
2023-05-18T02:08:36.817Z,2.20
2023-05-18T02:09:36.969Z,2.70
2023-05-18T02:10:37.142Z,2.30
2023-05-18T02:11:37.319Z,2.50
2023-05-18T02:12:37.469Z,2.60
2023-05-18T02:13:37.638Z,2.50
2023-05-18T02:14:37.775Z,2.50
2023-05-18T02:15:37.967Z,2.40
2023-05-18T02:16:38.226Z,2.40
2023-05-18T02:17:38.427Z,3.00
2023-05-18T02:18:38.527Z,2.40
2023-05-18T02:19:38.679Z,2.20
2023-05-18T02:20:38.851Z,2.40
2023-05-18T02:21:39.012Z,2.90
2023-05-18T02:22:39.220Z,2.50
2023-05-18T02:23:39.357Z,2.40
2023-05-18T02:24:39.541Z,2.30
2023-05-18T02:25:39.719Z,2.50
2023-05-18T02:26:39.919Z,2.40
2023-05-18T02:27:40.081Z,2.70
2023-05-18T02:28:40.233Z,2.50
2023-05-18T02:29:40.417Z,2.40
2023-05-18T02:30:40.561Z,2.50
2023-05-18T02:31:40.778Z,2.40
2023-05-18T02:32:40.942Z,2.60
2023-05-18T02:33:41.118Z,2.30
2023-05-18T02:34:41.264Z,2.50
2023-05-18T02:35:41.467Z,2.50
2023-05-18T02:36:41.605Z,2.30
2023-05-18T02:37:41.813Z,2.60
2023-05-18T02:38:42.073Z,2.10
2023-05-18T02:39:42.127Z,2.30
2023-05-18T02:40:42.299Z,2.50
2023-05-18T02:41:42.495Z,2.50
2023-05-18T02:42:42.657Z,2.50
2023-05-18T02:43:42.839Z,2.80
2023-05-18T02:44:42.994Z,2.50
2023-05-18T02:45:43.174Z,2.30
2023-05-18T02:46:43.348Z,2.50
2023-05-18T02:47:43.575Z,2.40
2023-05-18T02:48:43.685Z,2.70
2023-05-18T02:49:43.871Z,2.50
2023-05-18T02:50:44.029Z,2.70
2023-05-18T02:51:44.224Z,2.60
2023-05-18T02:52:44.379Z,2.60
2023-05-18T02:53:44.552Z,2.60
2023-05-18T02:54:44.723Z,2.70
2023-05-18T02:55:44.942Z,2.80
2023-05-18T02:56:45.079Z,2.30
2023-05-18T02:57:45.277Z,2.70
2023-05-18T02:58:45.465Z,2.40
2023-05-18T02:59:45.644Z,2.50
2023-05-18T03:00:45.826Z,2.50
2023-05-18T03:01:46.086Z,3.00
2023-05-18T03:02:46.300Z,2.80
2023-05-18T03:03:46.399Z,2.60
2023-05-18T03:04:48.632Z,2.90
2023-05-18T03:05:46.813Z,2.70
2023-05-18T03:06:46.926Z,3.10
2023-05-18T03:07:47.100Z,2.60
2023-05-18T03:08:47.264Z,2.60
2023-05-18T03:09:47.446Z,2.80
2023-05-18T03:10:47.624Z,2.60
2023-05-18T03:11:47.797Z,2.70
2023-05-18T03:12:47.975Z,2.90
2023-05-18T03:13:48.129Z,2.90
2023-05-18T03:14:48.311Z,2.50
2023-05-18T03:15:48.510Z,2.60
2023-05-18T03:16:48.719Z,3.00
2023-05-18T03:17:48.887Z,2.70
2023-05-18T03:18:48.957Z,2.90
2023-05-18T03:19:49.129Z,2.40
2023-05-18T03:20:49.327Z,2.70
2023-05-18T03:21:49.555Z,2.90
2023-05-18T03:22:49.699Z,2.80
2023-05-18T03:23:49.810Z,2.80
2023-05-18T03:24:49.974Z,2.80
2023-05-18T03:25:50.221Z,2.90
2023-05-18T03:26:50.341Z,2.90
2023-05-18T03:27:50.499Z,3.00
2023-05-18T03:28:50.661Z,2.80
2023-05-18T03:29:50.832Z,3.00
2023-05-18T03:30:51.020Z,3.10
2023-05-18T03:31:51.209Z,3.10
2023-05-18T03:32:51.406Z,3.10
2023-05-18T03:33:51.519Z,3.00
2023-05-18T03:34:51.682Z,3.10
2023-05-18T03:35:51.888Z,2.80
2023-05-18T03:36:52.014Z,3.40
2023-05-18T03:37:52.207Z,3.20
2023-05-18T03:38:52.391Z,2.70
2023-05-18T03:39:52.586Z,3.00
2023-05-18T03:40:52.757Z,3.00
2023-05-18T03:41:52.911Z,3.70
2023-05-18T03:42:53.076Z,2.80
2023-05-18T03:43:53.286Z,3.10
2023-05-18T03:44:53.444Z,3.00
2023-05-18T03:45:53.772Z,3.10
2023-05-18T03:46:53.811Z,2.90
2023-05-18T03:47:54.024Z,3.00
2023-05-18T03:48:54.167Z,2.90
2023-05-18T03:49:54.330Z,2.90
2023-05-18T03:50:54.511Z,2.90
2023-05-18T03:51:54.697Z,3.00
2023-05-18T03:52:54.839Z,3.10
2023-05-18T03:53:55.018Z,3.10
2023-05-18T03:54:55.170Z,2.80
2023-05-18T03:55:55.350Z,2.90
2023-05-18T03:56:55.533Z,3.10
2023-05-18T03:57:55.670Z,2.80
2023-05-18T03:58:55.861Z,2.90
2023-05-18T03:59:56.052Z,3.00
2023-05-18T04:00:56.228Z,3.40
2023-05-18T04:01:56.457Z,2.80
2023-05-18T04:02:56.640Z,3.30
2023-05-18T04:03:56.889Z,3.10
2023-05-18T04:04:56.951Z,3.30
2023-05-18T04:05:57.183Z,2.90
2023-05-18T04:06:57.316Z,2.80
2023-05-18T04:07:57.534Z,3.00
2023-05-18T04:08:57.666Z,3.00
2023-05-18T04:09:57.824Z,2.70
2023-05-18T04:10:58.037Z,2.80
2023-05-18T04:11:58.208Z,3.10
2023-05-18T04:12:58.340Z,2.70
2023-05-18T04:13:58.512Z,2.80
2023-05-18T04:14:58.688Z,2.70
2023-05-18T04:15:58.935Z,2.90
2023-05-18T04:16:59.059Z,2.70
2023-05-18T04:17:59.280Z,2.90
2023-05-18T04:18:59.437Z,2.50
2023-05-18T04:19:59.600Z,2.70
2023-05-18T04:20:59.826Z,2.40
2023-05-18T04:21:59.959Z,2.40
2023-05-18T04:23:00.182Z,2.30
2023-05-18T04:24:00.306Z,2.40
2023-05-18T04:25:00.495Z,2.40
2023-05-18T04:26:00.728Z,2.40
2023-05-18T04:27:00.895Z,2.20
2023-05-18T04:28:01.043Z,2.30
2023-05-18T04:29:01.213Z,2.10
2023-05-18T04:30:01.387Z,2.30
2023-05-18T04:31:01.586Z,2.60
2023-05-18T04:32:01.791Z,2.30
2023-05-18T04:33:01.928Z,2.00
2023-05-18T04:34:02.094Z,2.10
2023-05-18T04:35:02.249Z,2.20
2023-05-18T04:36:02.432Z,2.20
2023-05-18T04:37:02.603Z,2.20
2023-05-18T04:38:02.796Z,2.20
2023-05-18T04:39:02.936Z,2.00
2023-05-18T04:40:03.114Z,1.90
2023-05-18T04:41:03.319Z,2.10
2023-05-18T04:42:03.436Z,2.00
2023-05-18T04:43:03.589Z,2.00
2023-05-18T04:44:03.801Z,2.00
2023-05-18T04:45:03.961Z,2.20
2023-05-18T04:46:04.181Z,1.90
2023-05-18T04:47:04.290Z,2.40
2023-05-18T04:48:04.486Z,1.90
2023-05-18T04:49:04.630Z,1.70
2023-05-18T04:50:04.796Z,2.10
2023-05-18T04:51:05.044Z,1.80
2023-05-18T04:52:05.128Z,1.90
2023-05-18T04:53:05.298Z,2.00
2023-05-18T04:54:05.458Z,1.90
2023-05-18T04:55:05.657Z,1.80
2023-05-18T04:56:05.826Z,1.80
2023-05-18T04:57:05.971Z,1.70
2023-05-18T04:58:06.267Z,2.00
2023-05-18T04:59:06.293Z,1.70
2023-05-18T05:00:06.472Z,1.90
2023-05-18T05:01:06.641Z,1.80
2023-05-18T05:02:06.842Z,1.60
2023-05-18T05:03:07.068Z,1.80
2023-05-18T05:04:07.119Z,1.90
2023-05-18T05:05:07.271Z,1.80
2023-05-18T05:06:07.461Z,2.00
2023-05-18T05:07:07.644Z,1.80
2023-05-18T05:08:07.775Z,1.60
2023-05-18T05:09:07.957Z,1.80
2023-05-18T05:10:08.140Z,1.80
2023-05-18T05:11:08.304Z,1.90
2023-05-18T05:12:08.464Z,1.90
2023-05-18T05:13:08.648Z,1.60
2023-05-18T05:14:08.811Z,2.20
2023-05-18T05:15:08.957Z,1.70
2023-05-18T05:16:09.156Z,1.90
2023-05-18T05:17:09.289Z,1.80
2023-05-18T05:18:09.513Z,1.90
2023-05-18T05:19:09.703Z,2.00
2023-05-18T05:20:09.826Z,1.80
2023-05-18T05:21:09.982Z,1.50
2023-05-18T05:22:10.179Z,1.90
2023-05-18T05:23:10.381Z,2.00
2023-05-18T05:24:10.474Z,2.00
2023-05-18T05:25:10.647Z,1.80
2023-05-18T05:26:10.806Z,1.70
2023-05-18T05:27:10.962Z,1.60
2023-05-18T05:28:11.156Z,1.70
2023-05-18T05:29:11.275Z,1.80
2023-05-18T05:30:11.440Z,1.60
2023-05-18T05:31:11.646Z,2.00
2023-05-18T05:32:11.781Z,1.60
2023-05-18T05:33:12.045Z,1.60
2023-05-18T05:34:12.130Z,2.00
2023-05-18T05:35:12.291Z,1.80
2023-05-18T05:36:12.466Z,2.00
2023-05-18T05:37:12.682Z,2.00
2023-05-18T05:38:12.796Z,1.60
2023-05-18T05:39:12.952Z,1.90
2023-05-18T05:40:13.130Z,1.70
2023-05-18T05:41:13.322Z,1.80
2023-05-18T05:42:13.511Z,2.20
2023-05-18T05:43:13.652Z,2.10
2023-05-18T05:44:13.846Z,2.20
2023-05-18T05:45:14.032Z,1.70
2023-05-18T05:46:14.234Z,1.50
2023-05-18T05:47:14.557Z,1.70
2023-05-18T05:48:14.548Z,2.00
2023-05-18T05:49:14.708Z,1.70
2023-05-18T05:50:14.876Z,1.60
2023-05-18T05:51:15.097Z,1.70
2023-05-18T05:52:15.216Z,2.00
2023-05-18T05:53:15.384Z,1.60
2023-05-18T05:54:15.546Z,1.80
2023-05-18T05:55:15.805Z,1.80
2023-05-18T05:56:15.905Z,1.60
2023-05-18T05:57:16.038Z,1.80
2023-05-18T05:58:16.206Z,2.00
2023-05-18T05:59:16.394Z,1.70
2023-05-18T06:00:16.549Z,1.50
2023-05-18T06:01:16.747Z,1.80
2023-05-18T06:02:16.925Z,1.90
2023-05-18T06:03:17.086Z,1.60
2023-05-18T06:04:17.289Z,1.80
2023-05-18T06:05:17.423Z,1.90
2023-05-18T06:06:17.575Z,1.60
2023-05-18T06:07:17.743Z,2.00
2023-05-18T06:08:17.910Z,2.00
2023-05-18T06:09:18.065Z,1.90
2023-05-18T06:10:18.248Z,1.80
2023-05-18T06:11:18.415Z,1.70
2023-05-18T06:12:18.580Z,1.60
2023-05-18T06:13:18.716Z,1.40
2023-05-18T06:14:18.933Z,1.70
2023-05-18T06:15:19.107Z,1.60
2023-05-18T06:16:19.334Z,2.20
2023-05-18T06:17:19.448Z,2.00
2023-05-18T06:18:19.683Z,1.40
2023-05-18T06:19:19.886Z,2.00
2023-05-18T06:20:20.002Z,1.90
2023-05-18T06:21:20.191Z,1.60
2023-05-18T06:22:20.353Z,1.40
2023-05-18T06:23:20.487Z,1.90
2023-05-18T06:24:20.670Z,1.70
2023-05-18T06:25:20.829Z,1.70
2023-05-18T06:26:21.004Z,1.70
2023-05-18T06:27:21.156Z,1.90
2023-05-18T06:28:21.355Z,1.50
2023-05-18T06:29:21.569Z,1.60
2023-05-18T06:30:21.716Z,1.70
2023-05-18T06:31:21.917Z,1.70
2023-05-18T06:32:22.147Z,1.80
2023-05-18T06:33:22.239Z,1.70
2023-05-18T06:34:22.416Z,1.50
2023-05-18T06:35:22.609Z,1.70
2023-05-18T06:36:22.770Z,1.70
2023-05-18T06:37:22.968Z,2.00
2023-05-18T06:38:23.130Z,1.70
2023-05-18T06:39:23.303Z,2.00
2023-05-18T06:40:23.491Z,2.20
2023-05-18T06:41:23.654Z,1.70
2023-05-18T06:42:23.816Z,1.90
2023-05-18T06:43:24.024Z,1.70
2023-05-18T06:44:24.188Z,1.60
2023-05-18T06:45:24.369Z,1.70
2023-05-18T06:46:24.522Z,1.80
2023-05-18T06:47:24.757Z,2.10
2023-05-18T06:48:24.881Z,2.00
2023-05-18T06:49:25.056Z,2.10
2023-05-18T06:50:25.206Z,1.90
2023-05-18T06:51:25.385Z,1.80
2023-05-18T06:52:27.041Z,2.00
2023-05-18T06:53:25.737Z,2.00
2023-05-18T06:54:25.911Z,1.70
2023-05-18T06:55:26.084Z,1.90
2023-05-18T06:56:26.251Z,1.80
2023-05-18T06:57:26.433Z,1.60
2023-05-18T06:58:26.590Z,1.90
2023-05-18T06:59:26.755Z,1.70
2023-05-18T07:00:26.928Z,1.70
2023-05-18T07:01:27.195Z,1.60
2023-05-18T07:02:27.298Z,1.80
2023-05-18T07:03:27.489Z,1.80
2023-05-18T07:04:27.576Z,2.20
2023-05-18T07:05:27.786Z,1.60
2023-05-18T07:06:27.973Z,1.60
2023-05-18T07:07:28.111Z,1.70
2023-05-18T07:08:28.273Z,1.90
2023-05-18T07:09:28.452Z,1.60
2023-05-18T07:10:28.602Z,1.80
2023-05-18T07:11:29.849Z,1.70
2023-05-18T07:12:28.929Z,1.80
2023-05-18T07:13:29.119Z,1.90
2023-05-18T07:14:29.286Z,1.80
2023-05-18T07:15:29.844Z,1.60
2023-05-18T07:16:29.836Z,2.10
2023-05-18T07:17:29.841Z,1.60
2023-05-18T07:18:29.955Z,1.50
2023-05-18T07:19:30.148Z,1.80
2023-05-18T07:20:30.297Z,1.40
2023-05-18T07:21:30.471Z,1.50
2023-05-18T07:22:30.650Z,1.60
2023-05-18T07:23:30.811Z,1.60
2023-05-18T07:24:30.992Z,1.70
2023-05-18T07:25:31.341Z,1.80
2023-05-18T07:26:31.332Z,1.60
2023-05-18T07:27:31.512Z,1.70
2023-05-18T07:28:31.693Z,1.70
2023-05-18T07:29:31.893Z,1.90
2023-05-18T07:30:32.025Z,2.00
2023-05-18T07:31:32.223Z,2.30
2023-05-18T07:32:32.365Z,2.10
2023-05-18T07:33:32.523Z,1.90
2023-05-18T07:34:32.721Z,1.60
2023-05-18T07:35:33.154Z,1.70
2023-05-18T07:36:33.030Z,1.60
2023-05-18T07:37:33.203Z,1.90
2023-05-18T07:38:33.357Z,1.50
2023-05-18T07:39:33.614Z,1.60
2023-05-18T07:40:33.736Z,1.60
2023-05-18T07:41:33.890Z,1.50
2023-05-18T07:42:34.043Z,1.60
2023-05-18T07:43:34.222Z,1.80
2023-05-18T07:44:34.367Z,1.70
2023-05-18T07:45:34.800Z,2.00
2023-05-18T07:46:34.767Z,1.60
2023-05-18T07:47:34.909Z,2.00
2023-05-18T07:48:35.040Z,1.70
2023-05-18T07:49:35.215Z,1.50
2023-05-18T07:50:35.394Z,1.60
2023-05-18T07:51:35.548Z,1.30
2023-05-18T07:52:35.734Z,1.80
2023-05-18T07:53:35.896Z,1.30
2023-05-18T07:54:36.082Z,1.60
2023-05-18T07:55:36.215Z,1.60
2023-05-18T07:56:36.413Z,1.50
2023-05-18T07:57:36.581Z,1.70
2023-05-18T07:58:36.867Z,1.80
2023-05-18T07:59:36.941Z,1.60
2023-05-18T08:00:37.108Z,1.70
2023-05-18T08:01:37.325Z,2.00
2023-05-18T08:02:37.514Z,1.90
2023-05-18T08:03:37.852Z,3.00
2023-05-18T08:04:37.776Z,5.40
2023-05-18T08:05:37.965Z,4.30
2023-05-18T08:06:38.127Z,4.40
2023-05-18T08:07:38.350Z,2.80
2023-05-18T08:08:38.495Z,2.50
2023-05-18T08:09:38.664Z,1.90
2023-05-18T08:10:38.828Z,2.10
2023-05-18T08:11:39.041Z,2.00
2023-05-18T08:12:39.182Z,1.90
2023-05-18T08:13:39.346Z,2.10
2023-05-18T08:14:39.509Z,1.90
2023-05-18T08:15:39.699Z,1.70
2023-05-18T08:16:39.932Z,1.80
2023-05-18T08:17:40.092Z,1.90
2023-05-18T08:18:40.274Z,1.60
2023-05-18T08:19:41.956Z,1.70
2023-05-18T08:20:40.542Z,1.70
2023-05-18T08:21:40.699Z,1.40
2023-05-18T08:22:40.867Z,1.50
2023-05-18T08:23:41.022Z,1.40
2023-05-18T08:24:41.196Z,1.40
2023-05-18T08:25:41.400Z,1.60
2023-05-18T08:26:41.513Z,1.50
2023-05-18T08:27:41.684Z,1.70
2023-05-18T08:28:41.839Z,1.60
2023-05-18T08:29:42.007Z,1.90
2023-05-18T08:30:42.178Z,1.50
2023-05-18T08:31:42.379Z,1.40
2023-05-18T08:32:42.516Z,1.80
2023-05-18T08:33:42.669Z,1.40
2023-05-18T08:34:42.839Z,1.50
2023-05-18T08:35:43.026Z,1.60
2023-05-18T08:36:43.160Z,1.60
2023-05-18T08:37:43.361Z,1.90
2023-05-18T08:38:43.522Z,1.40
2023-05-18T08:39:43.717Z,1.70
2023-05-18T08:40:43.867Z,1.50
2023-05-18T08:41:44.034Z,1.40
2023-05-18T08:42:50.009Z,1.70
2023-05-18T08:43:45.417Z,1.40
2023-05-18T08:44:44.556Z,1.40
2023-05-18T08:45:44.731Z,1.60
2023-05-18T08:46:44.890Z,1.30
2023-05-18T08:47:45.138Z,1.30
2023-05-18T08:48:45.237Z,1.30
2023-05-18T08:49:45.388Z,1.70
2023-05-18T08:50:45.560Z,1.60
2023-05-18T08:51:45.716Z,1.70
2023-05-18T08:52:45.879Z,1.70
2023-05-18T08:53:46.068Z,1.40
2023-05-18T08:54:46.204Z,1.70
2023-05-18T08:55:46.402Z,1.40
2023-05-18T08:56:46.526Z,1.70
2023-05-18T08:57:46.685Z,1.50
2023-05-18T08:58:46.848Z,1.60
2023-05-18T08:59:47.018Z,1.70
2023-05-18T09:00:47.186Z,1.70
2023-05-18T09:01:47.456Z,1.60
2023-05-18T09:02:47.582Z,1.70
2023-05-18T09:03:47.698Z,1.50
2023-05-18T09:04:47.894Z,1.40
2023-05-18T09:05:48.046Z,1.30
2023-05-18T09:06:48.203Z,1.50
2023-05-18T09:07:48.374Z,1.50
2023-05-18T09:08:48.540Z,1.60
2023-05-18T09:09:48.722Z,1.50
2023-05-18T09:10:48.880Z,1.30
2023-05-18T09:11:49.048Z,1.30
2023-05-18T09:12:49.215Z,1.30
2023-05-18T09:13:49.398Z,1.50
2023-05-18T09:14:49.518Z,1.40
2023-05-18T09:15:49.706Z,1.60
2023-05-18T09:16:49.846Z,1.40
2023-05-18T09:17:50.092Z,1.80
2023-05-18T09:18:50.182Z,1.70
2023-05-18T09:19:50.338Z,1.40
2023-05-18T09:20:50.501Z,1.20
2023-05-18T09:21:50.655Z,1.60
2023-05-18T09:22:50.849Z,1.30
2023-05-18T09:23:50.990Z,1.50
2023-05-18T09:24:51.182Z,1.60
2023-05-18T09:25:51.362Z,1.40
2023-05-18T09:26:51.565Z,1.50
2023-05-18T09:27:51.686Z,1.60
2023-05-18T09:28:51.866Z,1.40
2023-05-18T09:29:52.057Z,1.20
2023-05-18T09:30:52.189Z,1.40
2023-05-18T09:31:52.441Z,1.40
2023-05-18T09:32:52.557Z,1.60
2023-05-18T09:33:52.731Z,1.90
2023-05-18T09:34:52.873Z,1.20
2023-05-18T09:35:53.045Z,1.30
2023-05-18T09:36:53.247Z,1.30
2023-05-18T09:37:53.392Z,1.60
2023-05-18T09:38:53.598Z,1.40
2023-05-18T09:39:53.750Z,1.20
2023-05-18T09:40:53.930Z,1.40
2023-05-18T09:41:54.102Z,1.30
2023-05-18T09:42:54.289Z,1.40
2023-05-18T09:43:54.462Z,1.50
2023-05-18T09:44:54.625Z,1.40
2023-05-18T09:45:54.780Z,1.50
2023-05-18T09:46:54.994Z,1.20
2023-05-18T09:47:55.170Z,1.30
2023-05-18T09:48:55.282Z,1.30
2023-05-18T09:49:55.423Z,1.50
2023-05-18T09:50:55.585Z,1.20
2023-05-18T09:51:55.824Z,1.50
2023-05-18T09:52:55.953Z,1.30
2023-05-18T09:53:56.127Z,1.30
2023-05-18T09:54:56.250Z,1.40
2023-05-18T09:55:56.451Z,1.40
2023-05-18T09:57:09.072Z,1.40
2023-05-18T09:57:57.801Z,1.40
2023-05-18T09:58:56.953Z,1.40
2023-05-18T09:59:57.152Z,1.80
2023-05-18T10:00:57.332Z,1.40
2023-05-18T10:01:57.497Z,1.50
2023-05-18T10:02:57.690Z,1.80
2023-05-18T10:03:57.868Z,1.70
2023-05-18T10:04:58.040Z,1.90
2023-05-18T10:05:58.161Z,1.90
2023-05-18T10:06:58.327Z,2.30
2023-05-18T10:07:58.535Z,2.00
2023-05-18T10:08:58.680Z,1.80
2023-05-18T10:09:58.852Z,2.20
2023-05-18T10:10:58.999Z,1.90
2023-05-18T10:11:59.184Z,2.40
2023-05-18T10:12:59.327Z,2.00
2023-05-18T10:13:59.510Z,2.00
2023-05-18T10:14:59.695Z,1.80
2023-05-18T10:15:59.920Z,1.70
2023-05-18T10:17:14.255Z,2.10
2023-05-18T10:18:01.251Z,1.90
2023-05-18T10:19:00.485Z,1.80
2023-05-18T10:20:00.576Z,1.70
2023-05-18T10:21:00.818Z,2.00
2023-05-18T10:22:00.957Z,1.50
2023-05-18T10:23:01.110Z,1.60
2023-05-18T10:24:01.305Z,1.80
2023-05-18T10:25:01.506Z,1.50
2023-05-18T10:26:01.657Z,1.60
2023-05-18T10:27:01.816Z,1.70
2023-05-18T10:28:02.018Z,1.50
2023-05-18T10:29:02.171Z,1.50
2023-05-18T10:30:02.367Z,1.90
2023-05-18T10:31:02.565Z,1.80
2023-05-18T10:32:05.259Z,1.40
2023-05-18T10:33:04.024Z,1.80
2023-05-18T10:34:03.035Z,1.60
2023-05-18T10:35:03.180Z,1.50
2023-05-18T10:36:03.376Z,1.40
2023-05-18T10:37:03.522Z,1.40
2023-05-18T10:38:03.695Z,1.50
2023-05-18T10:39:03.856Z,1.50
2023-05-18T10:40:04.118Z,1.70
2023-05-18T10:41:04.209Z,1.40
2023-05-18T10:42:04.376Z,1.60
2023-05-18T10:43:04.578Z,1.70
2023-05-18T10:44:04.725Z,1.60
2023-05-18T10:45:04.864Z,1.60
2023-05-18T10:46:05.120Z,1.30
2023-05-18T10:47:05.310Z,1.30
2023-05-18T10:48:05.540Z,1.40
2023-05-18T10:49:05.593Z,1.40
2023-05-18T10:50:05.760Z,1.60
2023-05-18T10:51:05.919Z,1.70
2023-05-18T10:52:06.086Z,1.50
2023-05-18T10:53:06.285Z,1.40
2023-05-18T10:54:06.395Z,1.40
2023-05-18T10:55:06.560Z,1.60
2023-05-18T10:56:06.762Z,1.50
2023-05-18T10:57:06.902Z,1.90
2023-05-18T10:58:07.109Z,1.20
2023-05-18T10:59:07.230Z,1.40
2023-05-18T11:00:07.392Z,1.20
2023-05-18T11:01:07.589Z,1.30
2023-05-18T11:02:07.768Z,1.50
2023-05-18T11:03:07.984Z,1.20
2023-05-18T11:04:08.090Z,1.30
2023-05-18T11:05:08.284Z,1.60
2023-05-18T11:06:08.422Z,1.50
2023-05-18T11:07:08.607Z,1.30
2023-05-18T11:08:08.784Z,1.40
2023-05-18T11:09:08.955Z,1.40
2023-05-18T11:10:09.127Z,1.20
2023-05-18T11:11:09.296Z,1.40
2023-05-18T11:12:09.456Z,1.50
2023-05-18T11:13:09.644Z,1.30
2023-05-18T11:14:09.810Z,1.30
2023-05-18T11:15:09.983Z,1.30
2023-05-18T11:16:10.247Z,1.70
2023-05-18T11:17:10.350Z,1.30
2023-05-18T11:18:10.562Z,1.30
2023-05-18T11:19:10.730Z,1.40
2023-05-18T11:20:10.849Z,1.20
2023-05-18T11:21:11.054Z,1.20
2023-05-18T11:22:11.212Z,1.40
2023-05-18T11:23:11.397Z,1.30
2023-05-18T11:24:11.604Z,1.40
2023-05-18T11:25:11.779Z,1.30
2023-05-18T11:26:11.936Z,1.20
2023-05-18T11:27:12.117Z,1.30
2023-05-18T11:28:12.306Z,1.30
2023-05-18T11:29:12.498Z,1.40
2023-05-18T11:31:12.812Z,1.10
2023-05-18T11:33:13.260Z,1.10
2023-05-18T11:34:13.323Z,1.20
2023-05-18T11:35:13.545Z,1.20
2023-05-18T11:36:13.709Z,1.40
2023-05-18T11:37:13.865Z,1.20
2023-05-18T11:38:14.000Z,1.40
2023-05-18T11:39:14.177Z,1.40
2023-05-18T11:40:14.470Z,1.20
2023-05-18T11:41:14.530Z,1.40
2023-05-18T11:42:14.703Z,1.30
2023-05-18T11:43:14.880Z,1.20
2023-05-18T11:44:15.064Z,1.20
2023-05-18T11:45:15.248Z,1.20
2023-05-18T11:46:15.417Z,1.20
2023-05-18T11:47:15.569Z,1.20
2023-05-18T11:48:15.786Z,1.20
2023-05-18T11:49:15.997Z,1.20
2023-05-18T11:50:16.098Z,1.30
2023-05-18T11:51:16.269Z,1.30
2023-05-18T11:52:16.432Z,1.20
2023-05-18T11:53:16.701Z,1.20
2023-05-18T11:54:16.773Z,1.10
2023-05-18T11:55:16.931Z,1.50
2023-05-18T11:56:17.121Z,1.20
2023-05-18T11:57:17.266Z,1.30
2023-05-18T11:58:17.429Z,1.10
2023-05-18T11:59:17.623Z,1.30
2023-05-18T12:00:17.806Z,1.50
2023-05-18T12:01:17.976Z,1.20
2023-05-18T12:02:18.195Z,1.30
2023-05-18T12:03:18.449Z,1.20
2023-05-18T12:04:18.608Z,1.30
2023-05-18T12:05:18.673Z,1.40
2023-05-18T12:06:18.827Z,1.30
2023-05-18T12:07:19.006Z,1.40
2023-05-18T12:08:19.192Z,1.10
2023-05-18T12:09:19.338Z,1.40
2023-05-18T12:10:19.498Z,1.10
2023-05-18T12:11:19.678Z,1.00
2023-05-18T12:12:19.944Z,1.30
2023-05-18T12:13:20.028Z,1.20
2023-05-18T12:14:20.179Z,1.30
2023-05-18T12:15:20.355Z,1.30
2023-05-18T12:16:20.562Z,1.50
2023-05-18T12:17:20.704Z,1.30
2023-05-18T12:18:20.899Z,1.50
2023-05-18T12:19:21.124Z,1.30
2023-05-18T12:20:21.229Z,1.20
2023-05-18T12:21:22.166Z,1.20
2023-05-18T12:22:21.567Z,1.20
2023-05-18T12:23:21.718Z,1.40
2023-05-18T12:24:21.859Z,1.00
2023-05-18T12:25:22.152Z,1.10
2023-05-18T12:26:22.220Z,1.40
2023-05-18T12:27:22.385Z,1.20
2023-05-18T12:28:22.519Z,1.20
2023-05-18T12:29:22.703Z,1.20
2023-05-18T12:30:22.857Z,1.30
2023-05-18T12:31:23.109Z,1.30
2023-05-18T12:32:23.187Z,1.20
2023-05-18T12:33:23.376Z,1.20
2023-05-18T12:34:23.543Z,1.10
2023-05-18T12:35:23.745Z,1.10
2023-05-18T12:36:23.922Z,1.30
2023-05-18T12:37:30.730Z,1.30
2023-05-18T12:38:25.231Z,1.30
2023-05-18T12:39:25.959Z,1.30
2023-05-18T12:40:24.587Z,1.30
2023-05-18T12:41:24.758Z,1.00
2023-05-18T12:42:24.906Z,1.10
2023-05-18T12:43:25.104Z,1.20
2023-05-18T12:44:25.254Z,1.10
2023-05-18T12:45:25.466Z,1.20
2023-05-18T12:46:25.780Z,1.30
2023-05-18T12:47:25.812Z,1.30
2023-05-18T12:48:25.947Z,1.10
2023-05-18T12:49:26.131Z,1.10
2023-05-18T12:50:26.311Z,1.10
2023-05-18T12:51:26.494Z,1.20
2023-05-18T12:52:26.655Z,1.40
2023-05-18T12:53:26.862Z,1.10
2023-05-18T12:54:26.994Z,1.00
2023-05-18T12:55:27.204Z,1.10
2023-05-18T12:56:27.365Z,1.20
2023-05-18T12:57:27.517Z,1.20
2023-05-18T12:58:27.690Z,1.20
2023-05-18T12:59:27.864Z,1.30
2023-05-18T13:00:28.017Z,1.20
2023-05-18T13:01:28.301Z,1.10
2023-05-18T13:02:28.404Z,1.10
2023-05-18T13:03:28.562Z,1.20
2023-05-18T13:04:28.683Z,1.10
2023-05-18T13:05:29.000Z,1.20
2023-05-18T13:06:29.030Z,1.10
2023-05-18T13:07:29.215Z,1.10
2023-05-18T13:08:29.455Z,1.10
2023-05-18T13:09:29.566Z,1.20
2023-05-18T13:10:29.712Z,1.20
2023-05-18T13:11:29.888Z,1.20
2023-05-18T13:12:30.039Z,1.40
2023-05-18T13:13:30.227Z,1.20
2023-05-18T13:14:30.356Z,1.20
2023-05-18T13:15:30.617Z,1.10
2023-05-18T13:16:30.920Z,1.10
2023-05-18T13:17:30.933Z,1.20
2023-05-18T13:18:31.053Z,1.30
2023-05-18T13:19:31.321Z,1.40
2023-05-18T13:20:31.873Z,1.40
2023-05-18T13:21:31.565Z,1.10
2023-05-18T13:22:31.741Z,0.90